sensor_id;sensor_type;location;lat;lon;timestamp;pressure;altitude;pressure_sealevel;temperature;humidity
59240;BME280;45010;53.640;10.578;2024-01-30T00:02:09;102087.59;;;25.88;29.59
59240;BME280;45010;53.640;10.578;2024-01-30T00:05:09;102088.41;;;25.89;29.51
59240;BME280;45010;53.640;10.578;2024-01-30T00:08:10;102074.03;;;25.83;29.62
59240;BME280;45010;53.640;10.578;2024-01-30T00:11:10;102090.88;;;25.90;29.52
59240;BME280;45010;53.640;10.578;2024-01-30T00:14:10;102090.88;;;25.90;29.85
59240;BME280;45010;53.640;10.578;2024-01-30T00:17:11;102085.53;;;25.90;29.59
59240;BME280;45010;53.640;10.578;2024-01-30T00:20:11;102091.72;;;25.91;29.32
59240;BME280;45010;53.640;10.578;2024-01-30T00:23:12;102088.22;;;25.90;29.37
59240;BME280;45010;53.640;10.578;2024-01-30T00:26:12;102081.03;;;25.91;29.37
59240;BME280;45010;53.640;10.578;2024-01-30T00:29:14;102081.81;;;25.91;29.66
59240;BME280;45010;53.640;10.578;2024-01-30T00:32:19;102078.16;;;25.92;29.43
59240;BME280;45010;53.640;10.578;2024-01-30T00:35:19;102074.44;;;25.94;29.14
59240;BME280;45010;53.640;10.578;2024-01-30T00:38:22;102059.22;;;25.81;29.36
59240;BME280;45010;53.640;10.578;2024-01-30T00:41:22;102079.78;;;25.94;29.24
59240;BME280;45010;53.640;10.578;2024-01-30T00:44:23;102080.41;;;25.96;29.28
59240;BME280;45010;53.640;10.578;2024-01-30T00:47:23;102082.22;;;25.95;29.07
59240;BME280;45010;53.640;10.578;2024-01-30T00:50:23;102077.72;;;25.96;29.34
59240;BME280;45010;53.640;10.578;2024-01-30T00:53:24;102061.28;;;25.92;29.42
59240;BME280;45010;53.640;10.578;2024-01-30T00:56:24;102066.19;;;25.95;29.23
59240;BME280;45010;53.640;10.578;2024-01-30T00:59:24;102061.69;;;25.96;29.51
59240;BME280;45010;53.640;10.578;2024-01-30T01:02:25;102062.50;;;25.96;29.20
59240;BME280;45010;53.640;10.578;2024-01-30T01:05:25;102060.84;;;25.95;29.25
59240;BME280;45010;53.640;10.578;2024-01-30T01:08:25;102056.34;;;25.96;29.29
59240;BME280;45010;53.640;10.578;2024-01-30T01:11:26;102054.69;;;25.95;29.44
59240;BME280;45010;53.640;10.578;2024-01-30T01:14:27;102049.34;;;25.95;29.40
59240;BME280;45010;53.640;10.578;2024-01-30T01:17:27;102050.16;;;25.95;29.23
59240;BME280;45010;53.640;10.578;2024-01-30T01:20:27;102043.19;;;25.87;29.39
59240;BME280;45010;53.640;10.578;2024-01-30T01:23:28;102054.69;;;25.95;29.09
59240;BME280;45010;53.640;10.578;2024-01-30T01:26:28;102056.34;;;25.96;29.10
59240;BME280;45010;53.640;10.578;2024-01-30T01:29:28;102054.09;;;25.92;28.97
59240;BME280;45010;53.640;10.578;2024-01-30T01:32:29;102059.59;;;25.98;29.16
59240;BME280;45010;53.640;10.578;2024-01-30T01:35:29;102054.25;;;25.98;29.41
59240;BME280;45010;53.640;10.578;2024-01-30T01:38:29;102061.28;;;25.99;28.96
59240;BME280;45010;53.640;10.578;2024-01-30T01:41:30;102051.38;;;25.99;29.13
59240;BME280;45010;53.640;10.578;2024-01-30T01:44:32;102050.16;;;26.02;29.14
59240;BME280;45010;53.640;10.578;2024-01-30T01:47:32;102047.69;;;26.07;28.69
59240;BME280;45010;53.640;10.578;2024-01-30T01:50:32;102051.38;;;25.99;29.16
59240;BME280;45010;53.640;10.578;2024-01-30T01:53:33;102047.91;;;25.99;28.92
59240;BME280;45010;53.640;10.578;2024-01-30T01:56:34;102053.25;;;25.99;29.03
59240;BME280;45010;53.640;10.578;2024-01-30T01:59:35;102050.59;;;25.99;28.87
59240;BME280;45010;53.640;10.578;2024-01-30T02:02:36;102044.81;;;25.95;28.97
59240;BME280;45010;53.640;10.578;2024-01-30T02:05:38;102038.66;;;25.95;28.80
59240;BME280;45010;53.640;10.578;2024-01-30T02:08:39;102034.16;;;25.88;28.52
59240;BME280;45010;53.640;10.578;2024-01-30T02:11:39;102034.16;;;25.88;28.60
59240;BME280;45010;53.640;10.578;2024-01-30T02:14:47;102036.19;;;25.86;28.52
59240;BME280;45010;53.640;10.578;2024-01-30T02:17:48;102031.06;;;25.78;28.60
59240;BME280;45010;53.640;10.578;2024-01-30T02:20:48;102036.41;;;25.78;28.64
59240;BME280;45010;53.640;10.578;2024-01-30T02:23:49;102007.88;;;25.58;28.77
59240;BME280;45010;53.640;10.578;2024-01-30T02:26:50;102029.22;;;25.72;28.65
59240;BME280;45010;53.640;10.578;2024-01-30T02:29:51;102026.97;;;25.69;28.84
59240;BME280;45010;53.640;10.578;2024-01-30T02:32:51;102033.75;;;25.64;28.73
59240;BME280;45010;53.640;10.578;2024-01-30T02:35:51;102025.53;;;25.59;28.82
59240;BME280;45010;53.640;10.578;2024-01-30T02:38:52;102027.19;;;25.54;28.75
59240;BME280;45010;53.640;10.578;2024-01-30T02:41:52;102026.72;;;25.50;29.08
59240;BME280;45010;53.640;10.578;2024-01-30T02:44:52;102011.94;;;25.41;29.30
59240;BME280;45010;53.640;10.578;2024-01-30T02:47:53;102011.75;;;25.42;29.09
59240;BME280;45010;53.640;10.578;2024-01-30T02:50:53;102012.34;;;25.37;29.12
59240;BME280;45010;53.640;10.578;2024-01-30T02:53:53;102010.28;;;25.33;29.10
59240;BME280;45010;53.640;10.578;2024-01-30T02:56:54;102009.88;;;25.29;29.01
59240;BME280;45010;53.640;10.578;2024-01-30T02:59:54;102014.81;;;25.25;29.09
59240;BME280;45010;53.640;10.578;2024-01-30T03:02:54;102008.22;;;25.21;29.04
59240;BME280;45010;53.640;10.578;2024-01-30T03:05:55;102013.16;;;25.18;29.22
59240;BME280;45010;53.640;10.578;2024-01-30T03:08:55;102008.25;;;25.15;29.08
59240;BME280;45010;53.640;10.578;2024-01-30T03:11:55;102001.66;;;25.10;29.14
59240;BME280;45010;53.640;10.578;2024-01-30T03:14:56;102007.38;;;25.07;29.32
59240;BME280;45010;53.640;10.578;2024-01-30T03:17:56;102002.47;;;25.04;29.56
59240;BME280;45010;53.640;10.578;2024-01-30T03:20:56;101997.50;;;25.01;29.36
59240;BME280;45010;53.640;10.578;2024-01-30T03:23:56;101995.28;;;24.98;29.40
59240;BME280;45010;53.640;10.578;2024-01-30T03:26:57;101994.66;;;24.96;29.37
59240;BME280;45010;53.640;10.578;2024-01-30T03:29:57;101989.72;;;24.93;29.41
59240;BME280;45010;53.640;10.578;2024-01-30T03:32:57;101979.84;;;24.87;29.45
59240;BME280;45010;53.640;10.578;2024-01-30T03:36:03;101983.13;;;24.89;29.43
59240;BME280;45010;53.640;10.578;2024-01-30T03:39:03;101966.69;;;24.78;29.44
59240;BME280;45010;53.640;10.578;2024-01-30T03:42:03;101981.06;;;24.84;29.50
59240;BME280;45010;53.640;10.578;2024-01-30T03:45:04;101976.97;;;24.81;29.45
59240;BME280;45010;53.640;10.578;2024-01-30T03:48:05;101978.97;;;24.79;29.47
59240;BME280;45010;53.640;10.578;2024-01-30T03:51:05;101972.00;;;24.78;29.67
59240;BME280;45010;53.640;10.578;2024-01-30T03:54:06;101974.22;;;24.75;29.67
59240;BME280;45010;53.640;10.578;2024-01-30T03:57:07;101979.78;;;24.73;29.26
59240;BME280;45010;53.640;10.578;2024-01-30T04:00:08;101974.66;;;24.71;29.47
59240;BME280;45010;53.640;10.578;2024-01-30T04:03:08;101978.53;;;24.69;29.58
59240;BME280;45010;53.640;10.578;2024-01-30T04:06:09;101978.53;;;24.69;29.50
59240;BME280;45010;53.640;10.578;2024-01-30T04:09:09;101974.44;;;24.66;29.61
59240;BME280;45010;53.640;10.578;2024-01-30T04:12:11;101980.59;;;24.67;29.59
59240;BME280;45010;53.640;10.578;2024-01-30T04:15:11;101980.59;;;24.67;29.70
59240;BME280;45010;53.640;10.578;2024-01-30T04:18:13;101984.28;;;24.66;29.39
59240;BME280;45010;53.640;10.578;2024-01-30T04:21:13;101965.38;;;24.54;29.46
59240;BME280;45010;53.640;10.578;2024-01-30T04:24:14;101985.94;;;24.67;29.68
59240;BME280;45010;53.640;10.578;2024-01-30T04:27:17;101989.63;;;24.66;29.49
59240;BME280;45010;53.640;10.578;2024-01-30T04:30:17;101984.28;;;24.66;29.60
59240;BME280;45010;53.640;10.578;2024-01-30T04:33:18;101985.50;;;24.63;29.62
59240;BME280;45010;53.640;10.578;2024-01-30T04:36:18;101980.38;;;24.62;29.59
59240;BME280;45010;53.640;10.578;2024-01-30T04:39:18;101973.41;;;24.61;29.70
59240;BME280;45010;53.640;10.578;2024-01-30T04:42:19;101964.94;;;24.50;29.71
59240;BME280;45010;53.640;10.578;2024-01-30T04:45:19;101980.16;;;24.56;29.60
59240;BME280;45010;53.640;10.578;2024-01-30T04:48:20;101977.25;;;24.51;29.50
59240;BME280;45010;53.640;10.578;2024-01-30T04:51:20;101983.00;;;24.48;29.75
59240;BME280;45010;53.640;10.578;2024-01-30T04:54:20;101976.41;;;24.44;29.99
59240;BME280;45010;53.640;10.578;2024-01-30T04:57:21;101972.28;;;24.41;30.07
59240;BME280;45010;53.640;10.578;2024-01-30T05:00:21;101969.81;;;24.40;29.60
59240;BME280;45010;53.640;10.578;2024-01-30T05:03:21;101967.72;;;24.28;29.88
59240;BME280;45010;53.640;10.578;2024-01-30T05:06:27;101976.78;;;24.34;29.94
59240;BME280;45010;53.640;10.578;2024-01-30T05:09:27;101973.47;;;24.32;30.00
59240;BME280;45010;53.640;10.578;2024-01-30T05:12:28;101962.81;;;24.25;30.21
59240;BME280;45010;53.640;10.578;2024-01-30T05:15:29;101959.91;;;24.20;30.34
59240;BME280;45010;53.640;10.578;2024-01-30T05:18:29;101975.09;;;24.26;30.07
59240;BME280;45010;53.640;10.578;2024-01-30T05:21:29;101967.28;;;24.25;30.15
59240;BME280;45010;53.640;10.578;2024-01-30T05:24:30;101978.16;;;24.23;30.16
59240;BME280;45010;53.640;10.578;2024-01-30T05:27:30;101975.47;;;24.23;30.29
59240;BME280;45010;53.640;10.578;2024-01-30T05:30:30;101966.88;;;24.21;30.04
59240;BME280;45010;53.640;10.578;2024-01-30T05:33:31;101959.91;;;24.20;30.20
59240;BME280;45010;53.640;10.578;2024-01-30T05:36:31;101944.69;;;24.14;30.44
59240;BME280;45010;53.640;10.578;2024-01-30T05:39:32;101944.28;;;24.17;30.28
59240;BME280;45010;53.640;10.578;2024-01-30T05:42:33;101947.97;;;24.16;30.38
59240;BME280;45010;53.640;10.578;2024-01-30T05:45:33;101942.88;;;24.14;30.51
59240;BME280;45010;53.640;10.578;2024-01-30T05:48:37;101950.03;;;24.14;29.92
59240;BME280;45010;53.640;10.578;2024-01-30T05:51:37;101937.66;;;24.06;30.42
59240;BME280;45010;53.640;10.578;2024-01-30T05:54:37;101950.41;;;24.11;30.49
59240;BME280;45010;53.640;10.578;2024-01-30T05:57:38;101948.78;;;24.10;30.61
59240;BME280;45010;53.640;10.578;2024-01-30T06:00:38;101955.13;;;24.09;30.55
59240;BME280;45010;53.640;10.578;2024-01-30T06:03:39;101950.81;;;24.08;30.49
59240;BME280;45010;53.640;10.578;2024-01-30T06:06:39;101941.34;;;24.05;30.06
59240;BME280;45010;53.640;10.578;2024-01-30T06:09:39;101936.84;;;24.05;30.62
59240;BME280;45010;53.640;10.578;2024-01-30T06:12:40;101920.59;;;23.94;30.81
59240;BME280;45010;53.640;10.578;2024-01-30T06:15:41;101941.53;;;24.03;30.61
59240;BME280;45010;53.640;10.578;2024-01-30T06:18:41;101933.53;;;24.03;30.72
59240;BME280;45010;53.640;10.578;2024-01-30T06:21:42;101931.91;;;24.02;30.75
59240;BME280;45010;53.640;10.578;2024-01-30T06:24:43;101925.75;;;24.02;30.76
59240;BME280;45010;53.640;10.578;2024-01-30T06:27:45;101922.28;;;24.01;30.57
59240;BME280;45010;53.640;10.578;2024-01-30T06:30:45;101925.97;;;24.00;30.70
59240;BME280;45010;53.640;10.578;2024-01-30T06:33:49;101909.75;;;23.95;30.72
59240;BME280;45010;53.640;10.578;2024-01-30T06:36:49;101911.00;;;23.99;30.93
59240;BME280;45010;53.640;10.578;2024-01-30T06:39:50;101909.31;;;23.98;30.67
59240;BME280;45010;53.640;10.578;2024-01-30T06:42:50;101907.69;;;23.97;30.53
59240;BME280;45010;53.640;10.578;2024-01-30T06:45:50;101913.03;;;23.97;30.85
59240;BME280;45010;53.640;10.578;2024-01-30T06:48:51;101912.22;;;23.97;30.76
59240;BME280;45010;53.640;10.578;2024-01-30T06:51:52;101910.34;;;23.97;31.00
59240;BME280;45010;53.640;10.578;2024-01-30T06:54:52;101914.47;;;23.93;30.82
59240;BME280;45010;53.640;10.578;2024-01-30T06:57:52;101922.88;;;23.97;30.88
59240;BME280;45010;53.640;10.578;2024-01-30T07:00:53;101906.88;;;23.97;30.96
59240;BME280;45010;53.640;10.578;2024-01-30T07:03:53;101913.03;;;23.97;31.03
59240;BME280;45010;53.640;10.578;2024-01-30T07:06:54;101914.03;;;23.96;31.19
59240;BME280;45010;53.640;10.578;2024-01-30T07:09:54;101923.69;;;23.97;31.06
59240;BME280;45010;53.640;10.578;2024-01-30T07:12:56;101921.66;;;23.99;31.08
59240;BME280;45010;53.640;10.578;2024-01-30T07:15:57;101921.25;;;24.02;31.33
59240;BME280;45010;53.640;10.578;2024-01-30T07:18:57;101923.28;;;24.00;31.60
59240;BME280;45010;53.640;10.578;2024-01-30T07:21:57;101934.75;;;24.01;32.01
59240;BME280;45010;53.640;10.578;2024-01-30T07:24:58;101927.41;;;24.03;31.86
59240;BME280;45010;53.640;10.578;2024-01-30T07:27:58;101920.88;;;24.05;32.06
59240;BME280;45010;53.640;10.578;2024-01-30T07:30:58;101918.66;;;24.09;32.08
59240;BME280;45010;53.640;10.578;2024-01-30T07:33:59;101922.78;;;24.12;31.75
59240;BME280;45010;53.640;10.578;2024-01-30T07:36:59;101917.22;;;24.13;31.74
59240;BME280;45010;53.640;10.578;2024-01-30T07:39:59;101911.09;;;24.13;31.58
59240;BME280;45010;53.640;10.578;2024-01-30T07:42:59;101918.28;;;24.19;31.79
59240;BME280;45010;53.640;10.578;2024-01-30T07:46:01;101923.19;;;24.22;31.61
59240;BME280;45010;53.640;10.578;2024-01-30T07:49:02;101914.81;;;24.25;31.53
59240;BME280;45010;53.640;10.578;2024-01-30T07:52:03;101919.72;;;24.28;31.42
59240;BME280;45010;53.640;10.578;2024-01-30T07:55:04;101919.97;;;24.34;31.45
59240;BME280;45010;53.640;10.578;2024-01-30T07:58:04;101911.97;;;24.34;31.56
59240;BME280;45010;53.640;10.578;2024-01-30T08:01:04;101916.31;;;24.41;31.30
59240;BME280;45010;53.640;10.578;2024-01-30T08:04:05;101914.47;;;24.42;31.04
59240;BME280;45010;53.640;10.578;2024-01-30T08:07:05;101913.44;;;24.43;31.22
59240;BME280;45010;53.640;10.578;2024-01-30T08:10:06;101914.06;;;24.45;31.04
59240;BME280;45010;53.640;10.578;2024-01-30T08:13:06;101923.69;;;24.46;31.18
59240;BME280;45010;53.640;10.578;2024-01-30T08:16:08;101919.00;;;24.48;30.86
59240;BME280;45010;53.640;10.578;2024-01-30T08:19:09;101922.28;;;24.50;30.90
59240;BME280;45010;53.640;10.578;2024-01-30T08:22:09;101924.75;;;24.52;30.90
59240;BME280;45010;53.640;10.578;2024-01-30T08:25:10;101920.22;;;24.52;30.74
59240;BME280;45010;53.640;10.578;2024-01-30T08:28:10;101894.34;;;24.39;30.69
59240;BME280;45010;53.640;10.578;2024-01-30T08:31:10;101916.13;;;24.56;30.70
59240;BME280;45010;53.640;10.578;2024-01-30T08:34:12;101917.78;;;24.57;30.76
59240;BME280;45010;53.640;10.578;2024-01-30T08:37:12;101910.81;;;24.56;30.65
59240;BME280;45010;53.640;10.578;2024-01-30T08:40:16;101907.53;;;24.54;30.39
59240;BME280;45010;53.640;10.578;2024-01-30T08:43:16;101910.19;;;24.61;30.56
59240;BME280;45010;53.640;10.578;2024-01-30T08:46:19;101901.78;;;24.57;30.50
59240;BME280;45010;53.640;10.578;2024-01-30T08:49:20;101902.00;;;24.63;30.55
59240;BME280;45010;53.640;10.578;2024-01-30T08:52:20;101902.59;;;24.65;30.78
59240;BME280;45010;53.640;10.578;2024-01-30T08:55:20;101896.88;;;24.68;30.99
59240;BME280;45010;53.640;10.578;2024-01-30T08:58:21;101901.78;;;24.71;31.04
59240;BME280;45010;53.640;10.578;2024-01-30T09:01:21;101899.53;;;24.75;31.17
59240;BME280;45010;53.640;10.578;2024-01-30T09:04:21;101900.97;;;24.77;31.09
59240;BME280;45010;53.640;10.578;2024-01-30T09:07:22;101898.13;;;24.79;31.35
59240;BME280;45010;53.640;10.578;2024-01-30T09:10:22;101891.19;;;24.84;31.18
59240;BME280;45010;53.640;10.578;2024-01-30T09:13:22;101891.38;;;24.90;30.83
59240;BME280;45010;53.640;10.578;2024-01-30T09:16:22;101894.47;;;24.93;30.99
59240;BME280;45010;53.640;10.578;2024-01-30T09:19:23;101890.56;;;24.96;31.36
59240;BME280;45010;53.640;10.578;2024-01-30T09:22:23;101893.84;;;24.98;31.21
59240;BME280;45010;53.640;10.578;2024-01-30T09:25:23;101876.41;;;25.02;30.95
59240;BME280;45010;53.640;10.578;2024-01-30T09:28:24;101857.91;;;24.94;30.94
59240;BME280;45010;53.640;10.578;2024-01-30T09:31:24;101847.25;;;24.94;31.04
59240;BME280;45010;53.640;10.578;2024-01-30T09:34:25;101855.88;;;25.09;30.89
59240;BME280;45010;53.640;10.578;2024-01-30T09:37:25;101860.78;;;25.12;30.79
59240;BME280;45010;53.640;10.578;2024-01-30T09:40:25;101824.03;;;25.01;30.74
59240;BME280;45010;53.640;10.578;2024-01-30T09:43:30;101861.81;;;25.18;30.91
59240;BME280;45010;53.640;10.578;2024-01-30T09:46:33;101858.13;;;25.19;30.83
59240;BME280;45010;53.640;10.578;2024-01-30T09:49:34;101857.91;;;25.21;30.67
59240;BME280;45010;53.640;10.578;2024-01-30T09:52:35;101843.72;;;25.14;30.45
59240;BME280;45010;53.640;10.578;2024-01-30T09:55:37;101866.13;;;25.26;30.43
59240;BME280;45010;53.640;10.578;2024-01-30T09:58:37;101861.59;;;25.27;30.54
59240;BME280;45010;53.640;10.578;2024-01-30T10:01:40;101873.72;;;25.29;30.39
59240;BME280;45010;53.640;10.578;2024-01-30T10:04:40;101882.31;;;25.31;30.35
59240;BME280;45010;53.640;10.578;2024-01-30T10:07:50;101888.28;;;25.33;30.48
59240;BME280;45010;53.640;10.578;2024-01-30T10:10:52;101881.72;;;25.36;30.32
59240;BME280;45010;53.640;10.578;2024-01-30T10:13:53;101875.13;;;25.38;30.30
59240;BME280;45010;53.640;10.578;2024-01-30T10:16:55;101872.88;;;25.35;30.23
59240;BME280;45010;53.640;10.578;2024-01-30T10:19:55;101866.50;;;25.36;30.21
59240;BME280;45010;53.640;10.578;2024-01-30T10:22:56;101875.31;;;25.44;30.51
59240;BME280;45010;53.640;10.578;2024-01-30T10:25:56;101865.25;;;25.46;30.04
59240;BME280;45010;53.640;10.578;2024-01-30T10:28:57;101856.22;;;25.47;30.42
59240;BME280;45010;53.640;10.578;2024-01-30T10:32:01;101851.47;;;25.49;30.38
59240;BME280;45010;53.640;10.578;2024-01-30T10:35:02;101836.69;;;25.46;30.25
59240;BME280;45010;53.640;10.578;2024-01-30T10:38:03;101840.38;;;25.52;30.20
59240;BME280;45010;53.640;10.578;2024-01-30T10:41:06;101827.88;;;25.46;30.34
59240;BME280;45010;53.640;10.578;2024-01-30T10:44:09;101825.81;;;25.55;30.52
59240;BME280;45010;53.640;10.578;2024-01-30T10:47:12;101817.59;;;25.49;30.20
59240;BME280;45010;53.640;10.578;2024-01-30T10:50:15;101821.69;;;25.52;30.40
59240;BME280;45010;53.640;10.578;2024-01-30T10:53:17;101836.91;;;25.58;30.14
59240;BME280;45010;53.640;10.578;2024-01-30T10:56:20;101844.72;;;25.60;30.28
59240;BME280;45010;53.640;10.578;2024-01-30T10:59:23;101838.53;;;25.59;30.04
59240;BME280;45010;53.640;10.578;2024-01-30T11:02:25;101828.69;;;25.60;29.80
59240;BME280;45010;53.640;10.578;2024-01-30T11:05:27;101822.91;;;25.56;30.29
59240;BME280;45010;53.640;10.578;2024-01-30T11:08:28;101824.16;;;25.60;30.11
59240;BME280;45010;53.640;10.578;2024-01-30T11:11:31;101815.09;;;25.61;29.93
59240;BME280;45010;53.640;10.578;2024-01-30T11:14:31;101818.81;;;25.60;30.15
59240;BME280;45010;53.640;10.578;2024-01-30T11:20:51;101829.09;;;25.57;30.01
59240;BME280;45010;53.640;10.578;2024-01-30T11:23:52;101831.13;;;25.61;29.82
59240;BME280;45010;53.640;10.578;2024-01-30T11:27:02;101829.47;;;25.60;29.66
59240;BME280;45010;53.640;10.578;2024-01-30T11:30:03;101823.53;;;25.58;29.70
59240;BME280;45010;53.640;10.578;2024-01-30T11:33:05;101817.16;;;25.52;29.60
59240;BME280;45010;53.640;10.578;2024-01-30T11:36:06;101811.44;;;25.56;29.79
59240;BME280;45010;53.640;10.578;2024-01-30T11:39:07;101814.31;;;25.54;29.67
59240;BME280;45010;53.640;10.578;2024-01-30T11:42:08;101804.66;;;25.53;29.73
59240;BME280;45010;53.640;10.578;2024-01-30T11:45:09;101808.34;;;25.52;29.67
59240;BME280;45010;53.640;10.578;2024-01-30T11:48:11;101811.84;;;25.46;29.78
59240;BME280;45010;53.640;10.578;2024-01-30T11:51:13;101806.09;;;25.42;29.82
59240;BME280;45010;53.640;10.578;2024-01-30T11:54:14;101803.41;;;25.49;29.71
59240;BME280;45010;53.640;10.578;2024-01-30T11:57:14;101744.38;;;25.11;29.45
59240;BME280;45010;53.640;10.578;2024-01-30T12:00:18;101779.78;;;25.46;29.75
59240;BME280;45010;53.640;10.578;2024-01-30T12:03:19;101782.66;;;25.44;29.54
59240;BME280;45010;53.640;10.578;2024-01-30T12:06:19;101792.53;;;25.44;29.90
59240;BME280;45010;53.640;10.578;2024-01-30T12:09:19;101794.59;;;25.42;29.89
59240;BME280;45010;53.640;10.578;2024-01-30T12:12:23;101782.28;;;25.41;29.99
59240;BME280;45010;53.640;10.578;2024-01-30T12:15:24;101776.94;;;25.41;29.68
59240;BME280;45010;53.640;10.578;2024-01-30T12:18:25;101783.31;;;25.39;29.68
59240;BME280;45010;53.640;10.578;2024-01-30T12:21:25;101778.19;;;25.38;29.85
59240;BME280;45010;53.640;10.578;2024-01-30T12:24:27;101782.69;;;25.37;30.13
59240;BME280;45010;53.640;10.578;2024-01-30T12:27:27;101788.03;;;25.37;30.30
59240;BME280;45010;53.640;10.578;2024-01-30T12:30:28;101776.75;;;25.35;30.42
59240;BME280;45010;53.640;10.578;2024-01-30T12:33:29;101778.78;;;25.40;30.50
59240;BME280;45010;53.640;10.578;2024-01-30T12:36:30;101768.53;;;25.37;30.56
59240;BME280;45010;53.640;10.578;2024-01-30T12:39:31;101752.72;;;25.35;30.57
59240;BME280;45010;53.640;10.578;2024-01-30T12:42:31;101758.84;;;25.43;30.57
59240;BME280;45010;53.640;10.578;2024-01-30T12:45:32;101768.28;;;25.45;30.55
59240;BME280;45010;53.640;10.578;2024-01-30T12:48:32;101770.75;;;25.47;30.43
59240;BME280;45010;53.640;10.578;2024-01-30T12:51:34;101751.88;;;25.35;30.78
59240;BME280;45010;53.640;10.578;2024-01-30T12:54:35;101759.63;;;25.50;30.67
59240;BME280;45010;53.640;10.578;2024-01-30T12:57:35;101753.28;;;25.51;30.75
59240;BME280;45010;53.640;10.578;2024-01-30T13:00:37;101762.75;;;25.54;30.81
59240;BME280;45010;53.640;10.578;2024-01-30T13:03:37;101767.06;;;25.55;30.78
59240;BME280;45010;53.640;10.578;2024-01-30T13:06:37;101765.19;;;25.55;30.46
59240;BME280;45010;53.640;10.578;2024-01-30T13:09:38;101760.47;;;25.57;30.19
59240;BME280;45010;53.640;10.578;2024-01-30T13:12:38;101755.13;;;25.57;30.85
59240;BME280;45010;53.640;10.578;2024-01-30T13:15:38;101748.75;;;25.58;30.35
59240;BME280;45010;53.640;10.578;2024-01-30T13:18:39;101756.56;;;25.60;30.48
59240;BME280;45010;53.640;10.578;2024-01-30T13:21:39;101744.06;;;25.54;30.25
59240;BME280;45010;53.640;10.578;2024-01-30T13:24:39;101751.81;;;25.62;30.48
59240;BME280;45010;53.640;10.578;2024-01-30T13:27:40;101759.63;;;25.63;30.61
59240;BME280;45010;53.640;10.578;2024-01-30T13:30:41;101762.88;;;25.65;30.55
59240;BME280;45010;53.640;10.578;2024-01-30T13:33:41;101764.53;;;25.67;30.82
59240;BME280;45010;53.640;10.578;2024-01-30T13:36:41;101753.06;;;25.59;30.50
59240;BME280;45010;53.640;10.578;2024-01-30T13:39:42;101763.28;;;25.69;30.27
59240;BME280;45010;53.640;10.578;2024-01-30T13:42:42;101759.56;;;25.70;30.34
59240;BME280;45010;53.640;10.578;2024-01-30T13:45:43;101751.34;;;25.72;30.23
59240;BME280;45010;53.640;10.578;2024-01-30T13:48:43;101754.63;;;25.74;30.23
59240;BME280;45010;53.640;10.578;2024-01-30T13:51:44;101756.28;;;25.75;30.28
59240;BME280;45010;53.640;10.578;2024-01-30T13:54:44;101750.94;;;25.75;30.50
59240;BME280;45010;53.640;10.578;2024-01-30T13:57:44;101754.19;;;25.77;30.24
59240;BME280;45010;53.640;10.578;2024-01-30T14:00:45;101755.84;;;25.78;30.49
59240;BME280;45010;53.640;10.578;2024-01-30T14:03:45;101763.84;;;25.78;30.24
59240;BME280;45010;53.640;10.578;2024-01-30T14:06:45;101772.47;;;25.80;30.12
59240;BME280;45010;53.640;10.578;2024-01-30T14:09:47;101764.44;;;25.80;30.06
59240;BME280;45010;53.640;10.578;2024-01-30T14:12:47;101760.78;;;25.81;30.14
59240;BME280;45010;53.640;10.578;2024-01-30T14:15:48;101760.78;;;25.81;30.33
59240;BME280;45010;53.640;10.578;2024-01-30T14:18:50;101757.06;;;25.82;30.10
59240;BME280;45010;53.640;10.578;2024-01-30T14:21:50;101751.72;;;25.82;30.07
59240;BME280;45010;53.640;10.578;2024-01-30T14:24:50;101743.91;;;25.81;30.15
59240;BME280;45010;53.640;10.578;2024-01-30T14:27:51;101736.53;;;25.76;29.76
59240;BME280;45010;53.640;10.578;2024-01-30T14:30:52;101759.09;;;25.80;29.83
59240;BME280;45010;53.640;10.578;2024-01-30T14:33:52;101760.16;;;25.79;29.88
59240;BME280;45010;53.640;10.578;2024-01-30T14:36:52;101756.28;;;25.75;29.84
59240;BME280;45010;53.640;10.578;2024-01-30T14:39:53;101752.38;;;25.71;29.71
59240;BME280;45010;53.640;10.578;2024-01-30T14:42:54;101761.63;;;25.75;29.92
59240;BME280;45010;53.640;10.578;2024-01-30T14:45:55;101745.22;;;25.64;29.66
59240;BME280;45010;53.640;10.578;2024-01-30T14:48:55;101755.06;;;25.71;29.70
59240;BME280;45010;53.640;10.578;2024-01-30T14:51:57;101753.44;;;25.70;29.71
59240;BME280;45010;53.640;10.578;2024-01-30T14:54:59;101741.13;;;25.62;29.51
59240;BME280;45010;53.640;10.578;2024-01-30T14:57:59;101755.06;;;25.64;29.61
59240;BME280;45010;53.640;10.578;2024-01-30T15:00:59;101732.94;;;25.57;29.83
59240;BME280;45010;53.640;10.578;2024-01-30T15:04:00;101750.38;;;25.59;29.54
59240;BME280;45010;53.640;10.578;2024-01-30T15:07:00;101747.13;;;25.57;29.83
59240;BME280;45010;53.640;10.578;2024-01-30T15:10:01;101718.19;;;25.41;29.71
59240;BME280;45010;53.640;10.578;2024-01-30T15:13:03;101743.22;;;25.53;30.04
59240;BME280;45010;53.640;10.578;2024-01-30T15:16:04;101748.34;;;25.55;30.34
59240;BME280;45010;53.640;10.578;2024-01-30T15:19:05;101737.69;;;25.55;30.32
59240;BME280;45010;53.640;10.578;2024-01-30T15:22:06;101746.50;;;25.55;30.62
59240;BME280;45010;53.640;10.578;2024-01-30T15:25:06;101742.78;;;25.56;30.39
59240;BME280;45010;53.640;10.578;2024-01-30T15:28:06;101739.09;;;25.57;30.42
59240;BME280;45010;53.640;10.578;2024-01-30T15:31:07;101749.78;;;25.57;30.62
59240;BME280;45010;53.640;10.578;2024-01-30T15:34:07;101735.41;;;25.58;30.56
59240;BME280;45010;53.640;10.578;2024-01-30T15:37:08;101746.09;;;25.58;30.50